Time,TemperatureF,DewpointF,PressureIn,WindDirection,WindDirectionDegrees,WindSpeedMPH,WindSpeedGustMPH,Humidity,HourlyPrecipIn,Conditions,Clouds,dailyrainin,SolarRadiationWatts/m^2,SoftwareType,DateUTC
2013-02-13 00:00:00,24.5,21.2,29.92,SW,219,4.0,4.0,87,0.00,,,0.00,0,Wunderground v.1.15,2013-02-13 06:00:00,
2013-02-13 00:05:00,25.0,21.4,29.92,SW,223,4.0,4.0,86,0.00,,,0.00,0,Wunderground v.1.15,2013-02-13 06:05:00,
2013-02-13 00:11:00,25.4,21.8,29.92,SW,219,4.0,4.0,86,0.00,,,0.00,0,Wunderground v.1.15,2013-02-13 06:11:00,
2013-02-13 00:17:00,25.3,21.4,29.92,SW,219,3.0,5.0,85,0.00,,,0.00,0,Wunderground v.1.15,2013-02-13 06:17:00,
2013-02-13 00:25:00,25.1,21.2,29.92,SW,219,3.0,4.0,85,0.00,,,0.00,0,Wunderground v.1.15,2013-02-13 06:25:00,
2013-02-13 00:30:00,24.9,21.3,29.91,SW,219,3.0,3.0,86,0.00,,,0.00,0,Wunderground v.1.15,2013-02-13 06:30:00,
2013-02-13 00:35:00,24.9,21.3,29.91,SW,221,3.0,5.0,86,0.00,,,0.00,0,Wunderground v.1.15,2013-02-13 06:35:00,
2013-02-13 00:41:00,25.0,21.4,29.91,SSW,213,3.0,3.0,86,0.00,,,0.00,0,Wunderground v.1.15,2013-02-13 06:41:00,
2013-02-13 00:46:00,24.4,20.5,29.91,SW,223,2.0,5.0,85,0.00,,,0.00,0,Wunderground v.1.15,2013-02-13 06:46:00,
2013-02-13 00:51:00,24.4,20.8,29.91,SW,223,2.0,2.0,86,0.00,,,0.00,0,Wunderground v.1.15,2013-02-13 06:51:00,
2013-02-13 00:57:00,24.3,20.7,29.91,SW,223,1.0,2.0,86,0.00,,,0.00,0,Wunderground v.1.15,2013-02-13 06:57:00,
2013-02-13 01:04:00,24.3,21.0,29.90,SW,223,2.0,3.0,87,0.00,,,0.00,0,Wunderground v.1.15,2013-02-13 07:04:00,
2013-02-13 01:10:00,24.8,21.2,29.90,SW,223,2.0,3.0,86,0.00,,,0.00,0,Wunderground v.1.15,2013-02-13 07:10:00,
2013-02-13 01:15:00,25.0,21.4,29.90,SW,224,3.0,4.0,86,0.00,,,0.00,0,Wunderground v.1.15,2013-02-13 07:15:00,
2013-02-13 01:21:00,25.3,21.7,29.90,SW,225,3.0,4.0,86,0.00,,,0.00,0,Wunderground v.1.15,2013-02-13 07:21:00,
2013-02-13 01:29:00,24.3,20.4,29.90,SW,221,3.0,5.0,85,0.00,,,0.00,0,Wunderground v.1.15,2013-02-13 07:29:00,
2013-02-13 01:35:00,23.0,19.4,29.90,SW,221,2.0,3.0,86,0.00,,,0.00,0,Wunderground v.1.15,2013-02-13 07:35:00,
2013-02-13 01:41:00,22.8,19.5,29.90,SW,221,0.0,0.0,87,0.00,,,0.00,0,Wunderground v.1.15,2013-02-13 07:41:00,
2013-02-13 01:50:00,23.2,20.2,29.89,SW,221,0.0,0.0,88,0.00,,,0.00,0,Wunderground v.1.15,2013-02-13 07:50:00,
2013-02-13 01:55:00,23.3,20.0,29.89,SW,221,0.0,2.0,87,0.00,,,0.00,0,Wunderground v.1.15,2013-02-13 07:55:00,
2013-02-13 02:00:00,23.2,20.2,29.89,SW,221,0.0,0.0,88,0.00,,,0.00,0,Wunderground v.1.15,2013-02-13 08:00:00,
2013-02-13 02:05:00,23.4,20.4,29.89,SW,221,0.0,0.0,88,0.00,,,0.00,0,Wunderground v.1.15,2013-02-13 08:05:00,
2013-02-13 02:11:00,23.2,20.2,29.89,SW,221,0.0,0.0,88,0.00,,,0.00,0,Wunderground v.1.15,2013-02-13 08:11:00,
2013-02-13 02:16:00,23.0,20.0,29.88,SW,221,0.0,0.0,88,0.00,,,0.00,0,Wunderground v.1.15,2013-02-13 08:16:00,
2013-02-13 02:25:00,23.1,20.3,29.88,SW,221,0.0,0.0,89,0.00,,,0.00,0,Wunderground v.1.15,2013-02-13 08:25:00,
2013-02-13 02:30:00,23.2,20.4,29.88,SW,221,0.0,0.0,89,0.00,,,0.00,0,Wunderground v.1.15,2013-02-13 08:30:00,
2013-02-13 02:36:00,23.3,20.5,29.88,SW,221,0.0,0.0,89,0.00,,,0.00,0,Wunderground v.1.15,2013-02-13 08:36:00,
2013-02-13 02:41:00,23.2,20.4,29.88,SW,221,0.0,0.0,89,0.00,,,0.00,0,Wunderground v.1.15,2013-02-13 08:41:00,
2013-02-13 02:46:00,22.6,19.6,29.87,SW,221,0.0,0.0,88,0.00,,,0.00,0,Wunderground v.1.15,2013-02-13 08:46:00,
2013-02-13 02:54:00,21.2,18.2,29.87,SW,221,0.0,0.0,88,0.00,,,0.00,0,Wunderground v.1.15,2013-02-13 08:54:00,
2013-02-13 03:00:00,21.2,18.7,29.87,SW,221,0.0,0.0,90,0.00,,,0.00,0,Wunderground v.1.15,2013-02-13 09:00:00,
2013-02-13 03:05:00,20.9,18.2,29.87,SW,221,0.0,0.0,89,0.00,,,0.00,0,Wunderground v.1.15,2013-02-13 09:05:00,
2013-02-13 03:11:00,19.9,17.2,29.87,SW,221,0.0,0.0,89,0.00,,,0.00,0,Wunderground v.1.15,2013-02-13 09:11:00,
2013-02-13 03:20:00,19.8,17.3,29.87,SW,221,0.0,0.0,90,0.00,,,0.00,0,Wunderground v.1.15,2013-02-13 09:20:00,
2013-02-13 03:25:00,19.4,16.9,29.87,SW,221,0.0,0.0,90,0.00,,,0.00,0,Wunderground v.1.15,2013-02-13 09:25:00,
2013-02-13 03:30:00,18.8,16.4,29.86,SW,221,0.0,0.0,90,0.00,,,0.00,0,Wunderground v.1.15,2013-02-13 09:30:00,
2013-02-13 03:36:00,18.5,16.1,29.86,SW,221,0.0,0.0,90,0.00,,,0.00,0,Wunderground v.1.15,2013-02-13 09:36:00,
2013-02-13 03:42:00,17.9,15.5,29.86,SW,221,0.0,0.0,90,0.00,,,0.00,0,Wunderground v.1.15,2013-02-13 09:42:00,
2013-02-13 03:49:00,17.8,15.4,29.85,SW,221,0.0,0.0,90,0.00,,,0.00,0,Wunderground v.1.15,2013-02-13 09:49:00,
2013-02-13 03:54:00,17.4,15.0,29.85,SW,221,0.0,0.0,90,0.00,,,0.00,0,Wunderground v.1.15,2013-02-13 09:54:00,
2013-02-13 04:00:00,17.7,15.3,29.85,SW,221,0.0,0.0,90,0.00,,,0.00,0,Wunderground v.1.15,2013-02-13 10:00:00,
2013-02-13 04:05:00,17.8,15.6,29.85,SW,221,0.0,0.0,91,0.00,,,0.00,0,Wunderground v.1.15,2013-02-13 10:05:00,
2013-02-13 04:11:00,18.0,15.8,29.85,SW,221,0.0,0.0,91,0.00,,,0.00,0,Wunderground v.1.15,2013-02-13 10:11:00,
2013-02-13 04:19:00,17.8,15.4,29.85,SW,221,0.0,0.0,90,0.00,,,0.00,0,Wunderground v.1.15,2013-02-13 10:19:00,
2013-02-13 04:24:00,17.5,15.1,29.85,SW,221,0.0,0.0,90,0.00,,,0.00,0,Wunderground v.1.15,2013-02-13 10:24:00,
2013-02-13 04:30:00,17.5,15.1,29.85,SW,221,0.0,0.0,90,0.00,,,0.00,0,Wunderground v.1.15,2013-02-13 10:30:00,
2013-02-13 04:35:00,17.5,15.1,29.85,SW,221,0.0,0.0,90,0.00,,,0.00,0,Wunderground v.1.15,2013-02-13 10:35:00,
2013-02-13 04:41:00,17.6,15.2,29.85,SW,221,0.0,0.0,90,0.00,,,0.00,0,Wunderground v.1.15,2013-02-13 10:41:00,
2013-02-13 04:50:00,17.2,14.8,29.85,SW,221,0.0,0.0,90,0.00,,,0.00,0,Wunderground v.1.15,2013-02-13 10:50:00,
2013-02-13 04:55:00,17.2,14.8,29.85,SW,221,0.0,0.0,90,0.00,,,0.00,0,Wunderground v.1.15,2013-02-13 10:55:00,
2013-02-13 05:01:00,17.2,14.8,29.84,SW,221,0.0,0.0,90,0.00,,,0.00,0,Wunderground v.1.15,2013-02-13 11:01:00,
2013-02-13 05:06:00,17.2,14.8,29.84,SW,221,0.0,0.0,90,0.00,,,0.00,0,Wunderground v.1.15,2013-02-13 11:06:00,
2013-02-13 05:14:00,17.4,15.0,29.84,SW,221,0.0,0.0,90,0.00,,,0.00,0,Wunderground v.1.15,2013-02-13 11:14:00,
2013-02-13 05:20:00,17.3,14.9,29.84,SW,221,0.0,0.0,90,0.00,,,0.00,0,Wunderground v.1.15,2013-02-13 11:20:00,
2013-02-13 05:25:00,17.1,14.7,29.84,SW,221,0.0,0.0,90,0.00,,,0.00,0,Wunderground v.1.15,2013-02-13 11:25:00,
2013-02-13 05:30:00,16.7,14.0,29.83,SW,221,0.0,0.0,89,0.00,,,0.00,0,Wunderground v.1.15,2013-02-13 11:30:00,
2013-02-13 05:36:00,16.9,14.5,29.83,SW,221,0.0,0.0,90,0.00,,,0.00,0,Wunderground v.1.15,2013-02-13 11:36:00,
2013-02-13 05:41:00,17.1,14.7,29.83,SW,221,0.0,0.0,90,0.00,,,0.00,0,Wunderground v.1.15,2013-02-13 11:41:00,
2013-02-13 05:46:00,17.1,14.7,29.83,SW,221,0.0,0.0,90,0.00,,,0.00,0,Wunderground v.1.15,2013-02-13 11:46:00,
2013-02-13 05:52:00,16.9,14.5,29.83,SW,221,0.0,0.0,90,0.00,,,0.00,0,Wunderground v.1.15,2013-02-13 11:52:00,
2013-02-13 05:59:00,16.7,14.3,29.83,SW,221,0.0,0.0,90,0.00,,,0.00,0,Wunderground v.1.15,2013-02-13 11:59:00,
2013-02-13 06:04:00,16.8,14.4,29.82,SW,221,0.0,0.0,90,0.00,,,0.00,0,Wunderground v.1.15,2013-02-13 12:04:00,
2013-02-13 06:10:00,16.7,14.3,29.82,SW,221,0.0,0.0,90,0.00,,,0.00,0,Wunderground v.1.15,2013-02-13 12:10:00,
2013-02-13 06:15:00,16.7,14.3,29.82,SW,221,0.0,0.0,90,0.00,,,0.00,0,Wunderground v.1.15,2013-02-13 12:15:00,
2013-02-13 06:21:00,16.7,14.3,29.82,SW,221,0.0,0.0,90,0.00,,,0.00,0,Wunderground v.1.15,2013-02-13 12:21:00,
2013-02-13 06:26:00,17.0,14.8,29.82,SW,221,0.0,0.0,91,0.00,,,0.00,0,Wunderground v.1.15,2013-02-13 12:26:00,
2013-02-13 06:32:00,16.4,13.7,29.82,SW,221,0.0,0.0,89,0.00,,,0.00,0,Wunderground v.1.15,2013-02-13 12:32:00,
2013-02-13 06:39:00,15.9,13.2,29.82,SW,221,0.0,0.0,89,0.00,,,0.00,0,Wunderground v.1.15,2013-02-13 12:39:00,
2013-02-13 06:45:00,15.3,12.6,29.81,SW,221,0.0,0.0,89,0.00,,,0.00,0,Wunderground v.1.15,2013-02-13 12:45:00,
2013-02-13 06:50:00,15.6,13.2,29.81,SW,221,0.0,0.0,90,0.00,,,0.00,0,Wunderground v.1.15,2013-02-13 12:50:00,
2013-02-13 06:56:00,15.5,13.1,29.81,SW,221,0.0,0.0,90,0.00,,,0.00,5,Wunderground v.1.15,2013-02-13 12:56:00,
2013-02-13 07:01:00,15.7,13.3,29.81,SW,221,0.0,0.0,90,0.00,,,0.00,7,Wunderground v.1.15,2013-02-13 13:01:00,
2013-02-13 07:06:00,15.5,12.8,29.81,SW,221,0.0,0.0,89,0.00,,,0.00,11,Wunderground v.1.15,2013-02-13 13:06:00,
2013-02-13 07:11:00,15.9,13.5,29.81,SW,221,0.0,0.0,90,0.00,,,0.00,14,Wunderground v.1.15,2013-02-13 13:11:00,
2013-02-13 07:16:00,16.0,13.6,29.81,SW,221,0.0,0.0,90,0.00,,,0.00,18,Wunderground v.1.15,2013-02-13 13:16:00,
2013-02-13 07:24:00,16.1,13.4,29.81,SW,221,0.0,0.0,89,0.00,,,0.00,25,Wunderground v.1.15,2013-02-13 13:24:00,
2013-02-13 07:30:00,14.9,12.0,29.81,SW,221,0.0,0.0,88,0.00,,,0.00,28,Wunderground v.1.15,2013-02-13 13:30:00,
2013-02-13 07:35:00,14.8,12.1,29.81,SW,221,0.0,0.0,89,0.00,,,0.00,32,Wunderground v.1.15,2013-02-13 13:35:00,
2013-02-13 07:41:00,15.1,12.4,29.81,SW,221,0.0,0.0,89,0.00,,,0.00,33,Wunderground v.1.15,2013-02-13 13:41:00,
2013-02-13 07:46:00,15.2,12.5,29.82,SW,221,0.0,0.0,89,0.00,,,0.00,62,Wunderground v.1.15,2013-02-13 13:46:00,
2013-02-13 07:51:00,15.7,13.3,29.82,SW,221,0.0,0.0,90,0.00,,,0.00,74,Wunderground v.1.15,2013-02-13 13:51:00,
2013-02-13 07:57:00,16.4,14.0,29.82,SW,221,0.0,0.0,90,0.00,,,0.00,74,Wunderground v.1.15,2013-02-13 13:57:00,
2013-02-13 08:04:00,17.5,15.1,29.82,SW,221,0.0,0.0,90,0.00,,,0.00,49,Wunderground v.1.15,2013-02-13 14:04:00,
2013-02-13 08:09:00,17.8,15.4,29.82,SW,221,0.0,0.0,90,0.00,,,0.00,53,Wunderground v.1.15,2013-02-13 14:09:00,
2013-02-13 08:15:00,18.6,16.4,29.82,SW,221,0.0,0.0,91,0.00,,,0.00,56,Wunderground v.1.15,2013-02-13 14:15:00,
2013-02-13 08:20:00,20.1,18.1,29.82,SW,221,0.0,0.0,92,0.00,,,0.00,200,Wunderground v.1.15,2013-02-13 14:20:00,
2013-02-13 08:26:00,21.1,19.1,29.82,SW,221,0.0,0.0,92,0.00,,,0.00,223,Wunderground v.1.15,2013-02-13 14:26:00,
2013-02-13 08:31:00,21.7,19.5,29.82,SW,221,0.0,0.0,91,0.00,,,0.00,262,Wunderground v.1.15,2013-02-13 14:31:00,
2013-02-13 08:39:00,22.9,20.9,29.82,SW,221,0.0,0.0,92,0.00,,,0.00,272,Wunderground v.1.15,2013-02-13 14:39:00,
2013-02-13 08:44:00,23.1,20.9,29.82,SW,221,0.0,0.0,91,0.00,,,0.00,287,Wunderground v.1.15,2013-02-13 14:44:00,
2013-02-13 08:50:00,23.1,20.6,29.82,SW,221,0.0,0.0,90,0.00,,,0.00,299,Wunderground v.1.15,2013-02-13 14:50:00,
2013-02-13 08:56:00,23.4,20.9,29.82,SW,221,0.0,2.0,90,0.00,,,0.00,308,Wunderground v.1.15,2013-02-13 14:56:00,
2013-02-13 09:01:00,24.8,22.3,29.82,SW,221,0.0,2.0,90,0.00,,,0.00,327,Wunderground v.1.15,2013-02-13 15:01:00,
2013-02-13 09:06:00,25.9,23.4,29.82,SW,217,1.0,3.0,90,0.00,,,0.00,341,Wunderground v.1.15,2013-02-13 15:06:00,
2013-02-13 09:14:00,27.0,23.9,29.82,SSW,208,3.0,3.0,88,0.00,,,0.00,362,Wunderground v.1.15,2013-02-13 15:14:00,
2013-02-13 09:20:00,27.4,24.0,29.81,SSW,201,3.0,5.0,87,0.00,,,0.00,373,Wunderground v.1.15,2013-02-13 15:20:00,
2013-02-13 09:26:00,27.7,24.1,29.81,SSW,200,4.0,5.0,86,0.00,,,0.00,383,Wunderground v.1.15,2013-02-13 15:26:00,
2013-02-13 09:31:00,28.0,24.6,29.81,SSW,209,4.0,5.0,87,0.00,,,0.00,396,Wunderground v.1.15,2013-02-13 15:31:00,
2013-02-13 09:37:00,28.2,24.6,29.81,SSW,209,4.0,5.0,86,0.00,,,0.00,410,Wunderground v.1.15,2013-02-13 15:37:00,
2013-02-13 09:42:00,28.7,25.0,29.81,SSW,208,4.0,5.0,86,0.00,,,0.00,420,Wunderground v.1.15,2013-02-13 15:42:00,
2013-02-13 09:49:00,29.3,25.4,29.81,SSW,204,3.0,5.0,85,0.00,,,0.00,436,Wunderground v.1.15,2013-02-13 15:49:00,
2013-02-13 09:55:00,29.9,25.9,29.81,SSW,201,2.0,2.0,85,0.00,,,0.00,446,Wunderground v.1.15,2013-02-13 15:55:00,
2013-02-13 10:01:00,30.2,25.7,29.81,SSW,204,2.0,5.0,83,0.00,,,0.00,461,Wunderground v.1.15,2013-02-13 16:01:00,
2013-02-13 10:10:00,30.9,26.3,29.81,SSW,202,3.0,3.0,83,0.00,,,0.00,480,Wunderground v.1.15,2013-02-13 16:10:00,
2013-02-13 10:15:00,30.5,26.0,29.81,SSW,196,3.0,7.0,83,0.00,,,0.00,489,Wunderground v.1.15,2013-02-13 16:15:00,
2013-02-13 10:20:00,30.6,26.1,29.81,SSW,195,5.0,5.0,83,0.00,,,0.00,501,Wunderground v.1.15,2013-02-13 16:20:00,
2013-02-13 10:26:00,31.1,26.2,29.81,SSW,209,5.0,6.0,82,0.00,,,0.00,512,Wunderground v.1.15,2013-02-13 16:26:00,
2013-02-13 10:34:00,31.6,26.7,29.81,SSW,206,5.0,7.0,82,0.00,,,0.00,519,Wunderground v.1.15,2013-02-13 16:34:00,
2013-02-13 10:40:00,32.8,27.6,29.81,SSE,152,3.0,3.0,81,0.00,,,0.00,552,Wunderground v.1.15,2013-02-13 16:40:00,
2013-02-13 10:46:00,32.5,26.7,29.81,SSW,212,3.0,7.0,79,0.00,,,0.00,529,Wunderground v.1.15,2013-02-13 16:46:00,
2013-02-13 10:52:00,32.8,27.3,29.81,SSW,202,4.0,6.0,80,0.00,,,0.00,582,Wunderground v.1.15,2013-02-13 16:52:00,
2013-02-13 10:59:00,33.0,27.2,29.81,SSW,194,5.0,7.0,79,0.00,,,0.00,603,Wunderground v.1.15,2013-02-13 16:59:00,
2013-02-13 11:05:00,33.4,27.6,29.81,SSW,207,5.0,5.0,79,0.00,,,0.00,536,Wunderground v.1.15,2013-02-13 17:05:00,
2013-02-13 11:10:00,33.6,27.5,29.81,SSW,204,4.0,5.0,78,0.00,,,0.00,563,Wunderground v.1.15,2013-02-13 17:10:00,
2013-02-13 11:16:00,34.1,28.0,29.80,SW,225,4.0,7.0,78,0.00,,,0.00,494,Wunderground v.1.15,2013-02-13 17:16:00,
2013-02-13 11:21:00,34.0,27.9,29.80,SW,223,5.0,9.0,78,0.00,,,0.00,605,Wunderground v.1.15,2013-02-13 17:21:00,
2013-02-13 11:29:00,34.4,27.9,29.80,SSW,205,7.0,9.0,77,0.00,,,0.00,561,Wunderground v.1.15,2013-02-13 17:29:00,
2013-02-13 11:34:00,34.9,28.1,29.79,SSW,197,6.0,7.0,76,0.00,,,0.00,452,Wunderground v.1.15,2013-02-13 17:34:00,
2013-02-13 11:40:00,35.2,28.4,29.79,SSW,207,5.0,5.0,76,0.00,,,0.00,547,Wunderground v.1.15,2013-02-13 17:40:00,
2013-02-13 11:45:00,35.4,28.3,29.79,SSW,209,5.0,5.0,75,0.00,,,0.00,596,Wunderground v.1.15,2013-02-13 17:45:00,
2013-02-13 11:51:00,35.7,28.6,29.79,SW,216,5.0,5.0,75,0.00,,,0.00,613,Wunderground v.1.15,2013-02-13 17:51:00,
2013-02-13 11:59:00,36.0,28.5,29.79,SW,227,6.0,9.0,74,0.00,,,0.00,615,Wunderground v.1.15,2013-02-13 17:59:00,
2013-02-13 12:05:00,36.4,28.6,29.79,SSW,200,6.0,6.0,73,0.00,,,0.00,631,Wunderground v.1.15,2013-02-13 18:05:00,
2013-02-13 12:10:00,36.4,28.6,29.79,SW,217,5.0,8.0,73,0.00,,,0.00,570,Wunderground v.1.15,2013-02-13 18:10:00,
2013-02-13 12:16:00,36.7,28.5,29.77,SSW,213,6.0,8.0,72,0.00,,,0.00,512,Wunderground v.1.15,2013-02-13 18:16:00,
2013-02-13 12:21:00,36.9,28.7,29.77,SSW,194,5.0,6.0,72,0.00,,,0.00,612,Wunderground v.1.15,2013-02-13 18:21:00,
2013-02-13 12:26:00,36.7,28.9,29.77,SW,222,5.0,7.0,73,0.00,,,0.00,599,Wunderground v.1.15,2013-02-13 18:26:00,
2013-02-13 12:32:00,36.9,28.7,29.77,SSW,213,6.0,6.0,72,0.00,,,0.00,578,Wunderground v.1.15,2013-02-13 18:32:00,
2013-02-13 12:39:00,37.1,28.9,29.77,SSW,201,6.0,7.0,72,0.00,,,0.00,548,Wunderground v.1.15,2013-02-13 18:39:00,
2013-02-13 12:44:00,37.2,29.0,29.77,WSW,238,6.0,8.0,72,0.00,,,0.00,568,Wunderground v.1.15,2013-02-13 18:44:00,
2013-02-13 12:49:00,37.4,28.9,29.76,SSW,213,6.0,8.0,71,0.00,,,0.00,545,Wunderground v.1.15,2013-02-13 18:49:00,
2013-02-13 12:55:00,37.3,28.8,29.76,WSW,238,6.0,8.0,71,0.00,,,0.00,446,Wunderground v.1.15,2013-02-13 18:55:00,
2013-02-13 13:00:00,37.3,29.1,29.76,WSW,248,7.0,10.0,72,0.00,,,0.00,443,Wunderground v.1.15,2013-02-13 19:00:00,
2013-02-13 13:05:00,37.2,28.7,29.76,SW,229,7.0,10.0,71,0.00,,,0.00,519,Wunderground v.1.15,2013-02-13 19:05:00,
2013-02-13 13:11:00,37.4,28.9,29.76,WSW,249,8.0,8.0,71,0.00,,,0.00,483,Wunderground v.1.15,2013-02-13 19:11:00,
2013-02-13 13:16:00,37.2,28.3,29.76,WSW,255,8.0,10.0,70,0.00,,,0.00,513,Wunderground v.1.15,2013-02-13 19:16:00,
2013-02-13 13:24:00,37.3,28.4,29.76,West,259,9.0,10.0,70,0.00,,,0.00,404,Wunderground v.1.15,2013-02-13 19:24:00,
2013-02-13 13:30:00,37.2,28.3,29.76,WSW,237,9.0,9.0,70,0.00,,,0.00,359,Wunderground v.1.15,2013-02-13 19:30:00,
2013-02-13 13:35:00,37.2,28.7,29.76,SW,234,9.0,10.0,71,0.00,,,0.00,338,Wunderground v.1.15,2013-02-13 19:35:00,
2013-02-13 13:41:00,37.2,28.3,29.76,WSW,258,10.0,12.0,70,0.00,,,0.00,290,Wunderground v.1.15,2013-02-13 19:41:00,
2013-02-13 13:46:00,37.3,28.8,29.75,SW,235,9.0,12.0,71,0.00,,,0.00,271,Wunderground v.1.15,2013-02-13 19:46:00,
2013-02-13 13:52:00,37.3,28.8,29.75,WSW,254,8.0,10.0,71,0.00,,,0.00,362,Wunderground v.1.15,2013-02-13 19:52:00,
2013-02-13 13:59:00,37.3,28.4,29.75,WSW,241,9.0,12.0,70,0.00,,,0.00,376,Wunderground v.1.15,2013-02-13 19:59:00,
2013-02-13 14:05:00,37.0,28.1,29.75,WSW,250,11.0,12.0,70,0.00,,,0.00,315,Wunderground v.1.15,2013-02-13 20:05:00,
2013-02-13 14:10:00,36.9,28.4,29.75,WSW,250,11.0,11.0,71,0.00,,,0.00,297,Wunderground v.1.15,2013-02-13 20:10:00,
2013-02-13 14:16:00,36.7,28.5,29.75,SSW,213,10.0,11.0,72,0.00,,,0.00,260,Wunderground v.1.15,2013-02-13 20:16:00,
2013-02-13 14:21:00,36.4,28.2,29.75,SW,236,10.0,10.0,72,0.00,,,0.00,248,Wunderground v.1.15,2013-02-13 20:21:00,
2013-02-13 14:27:00,36.5,28.3,29.75,WSW,243,11.0,13.0,72,0.00,,,0.00,262,Wunderground v.1.15,2013-02-13 20:27:00,
2013-02-13 14:34:00,36.6,28.1,29.75,WSW,239,11.0,11.0,71,0.00,,,0.00,267,Wunderground v.1.15,2013-02-13 20:34:00,
2013-02-13 14:40:00,36.7,28.2,29.75,WSW,253,11.0,11.0,71,0.00,,,0.00,322,Wunderground v.1.15,2013-02-13 20:40:00,
2013-02-13 14:45:00,36.8,28.6,29.75,SW,236,10.0,12.0,72,0.00,,,0.00,283,Wunderground v.1.15,2013-02-13 20:45:00,
2013-02-13 14:50:00,36.8,28.6,29.75,WSW,238,10.0,10.0,72,0.00,,,0.00,285,Wunderground v.1.15,2013-02-13 20:50:00,
2013-02-13 14:56:00,36.9,28.7,29.75,SW,225,10.0,10.0,72,0.00,,,0.00,283,Wunderground v.1.15,2013-02-13 20:56:00,
2013-02-13 15:01:00,36.8,28.6,29.75,SW,223,10.0,13.0,72,0.00,,,0.00,251,Wunderground v.1.15,2013-02-13 21:01:00,
2013-02-13 15:07:00,36.9,28.7,29.75,SW,228,11.0,13.0,72,0.00,,,0.00,237,Wunderground v.1.15,2013-02-13 21:07:00,
2013-02-13 15:14:00,36.9,28.7,29.75,SW,229,11.0,14.0,72,0.00,,,0.00,287,Wunderground v.1.15,2013-02-13 21:14:00,
2013-02-13 15:20:00,37.0,29.1,29.76,SW,227,11.0,11.0,73,0.00,,,0.00,281,Wunderground v.1.15,2013-02-13 21:20:00,
2013-02-13 15:25:00,37.2,29.0,29.76,SW,227,11.0,13.0,72,0.00,,,0.00,281,Wunderground v.1.15,2013-02-13 21:25:00,
2013-02-13 15:31:00,37.3,28.8,29.75,SW,235,10.0,10.0,71,0.00,,,0.00,276,Wunderground v.1.15,2013-02-13 21:31:00,
2013-02-13 15:36:00,37.3,29.1,29.75,SW,225,10.0,13.0,72,0.00,,,0.00,269,Wunderground v.1.15,2013-02-13 21:36:00,
2013-02-13 15:42:00,37.2,29.0,29.75,SW,236,11.0,13.0,72,0.00,,,0.00,251,Wunderground v.1.15,2013-02-13 21:42:00,
2013-02-13 15:49:00,37.1,28.9,29.75,WSW,240,11.0,13.0,72,0.00,,,0.00,225,Wunderground v.1.15,2013-02-13 21:49:00,
2013-02-13 15:55:00,37.4,28.9,29.75,WSW,237,9.0,10.0,71,0.00,,,0.00,207,Wunderground v.1.15,2013-02-13 21:55:00,
2013-02-13 16:00:00,37.5,28.9,29.75,WSW,238,9.0,12.0,71,0.00,,,0.00,190,Wunderground v.1.15,2013-02-13 22:00:00,
2013-02-13 16:05:00,37.3,28.4,29.75,SW,223,9.0,12.0,70,0.00,,,0.00,167,Wunderground v.1.15,2013-02-13 22:05:00,
2013-02-13 16:11:00,37.2,28.3,29.75,WSW,238,10.0,11.0,70,0.00,,,0.00,146,Wunderground v.1.15,2013-02-13 22:11:00,
2013-02-13 16:19:00,37.2,28.7,29.75,SW,230,10.0,11.0,71,0.00,,,0.00,120,Wunderground v.1.15,2013-02-13 22:19:00,
2013-02-13 16:24:00,37.0,28.5,29.75,WSW,254,8.0,10.0,71,0.00,,,0.00,105,Wunderground v.1.15,2013-02-13 22:24:00,
2013-02-13 16:30:00,36.9,28.4,29.75,SW,223,9.0,12.0,71,0.00,,,0.00,86,Wunderground v.1.15,2013-02-13 22:30:00,
2013-02-13 16:35:00,36.7,28.2,29.75,SW,233,10.0,12.0,71,0.00,,,0.00,74,Wunderground v.1.15,2013-02-13 22:35:00,
2013-02-13 16:41:00,36.6,28.4,29.75,SW,227,8.0,9.0,72,0.00,,,0.00,65,Wunderground v.1.15,2013-02-13 22:41:00,
2013-02-13 16:49:00,36.5,28.7,29.75,SW,219,7.0,9.0,73,0.00,,,0.00,37,Wunderground v.1.15,2013-02-13 22:49:00,
2013-02-13 16:55:00,36.2,28.7,29.75,SW,226,7.0,9.0,74,0.00,,,0.00,35,Wunderground v.1.15,2013-02-13 22:55:00,
2013-02-13 17:00:00,36.2,28.7,29.76,SW,224,7.0,8.0,74,0.00,,,0.00,19,Wunderground v.1.15,2013-02-13 23:00:00,
2013-02-13 17:06:00,36.0,28.5,29.76,SW,225,6.0,8.0,74,0.00,,,0.00,14,Wunderground v.1.15,2013-02-13 23:06:00,
2013-02-13 17:11:00,35.7,28.6,29.76,SW,234,6.0,6.0,75,0.00,,,0.00,9,Wunderground v.1.15,2013-02-13 23:11:00,
2013-02-13 17:17:00,35.4,28.6,29.76,SW,235,5.0,6.0,76,0.00,,,0.00,5,Wunderground v.1.15,2013-02-13 23:17:00,
2013-02-13 17:24:00,35.1,28.3,29.76,SW,229,4.0,5.0,76,0.00,,,0.00,0,Wunderground v.1.15,2013-02-13 23:24:00,
2013-02-13 17:30:00,34.7,28.2,29.76,SW,229,4.0,4.0,77,0.00,,,0.00,0,Wunderground v.1.15,2013-02-13 23:30:00,
2013-02-13 17:35:00,34.4,28.2,29.76,SW,229,3.0,4.0,78,0.00,,,0.00,0,Wunderground v.1.15,2013-02-13 23:35:00,
2013-02-13 17:41:00,34.3,28.2,29.76,WSW,238,3.0,4.0,78,0.00,,,0.00,0,Wunderground v.1.15,2013-02-13 23:41:00,
2013-02-13 17:47:00,34.4,28.2,29.76,WSW,238,4.0,5.0,78,0.00,,,0.00,0,Wunderground v.1.15,2013-02-13 23:47:00,
2013-02-13 17:54:00,34.0,27.9,29.76,WSW,238,3.0,4.0,78,0.00,,,0.00,0,Wunderground v.1.15,2013-02-13 23:54:00,
2013-02-13 18:00:00,34.0,27.9,29.77,SW,232,3.0,3.0,78,0.00,,,0.00,0,Wunderground v.1.15,2013-02-14 00:00:00,
2013-02-13 18:05:00,33.8,27.7,29.77,SW,232,3.0,4.0,78,0.00,,,0.00,0,Wunderground v.1.15,2013-02-14 00:05:00,
2013-02-13 18:11:00,33.6,27.8,29.77,SW,232,4.0,4.0,79,0.00,,,0.00,0,Wunderground v.1.15,2013-02-14 00:11:00,
2013-02-13 18:20:00,33.3,27.8,29.77,SW,234,3.0,4.0,80,0.00,,,0.00,0,Wunderground v.1.15,2013-02-14 00:20:00,
2013-02-13 18:25:00,33.2,27.7,29.77,SW,234,4.0,5.0,80,0.00,,,0.00,0,Wunderground v.1.15,2013-02-14 00:25:00,
2013-02-13 18:31:00,33.3,27.8,29.77,SW,229,4.0,4.0,80,0.00,,,0.00,0,Wunderground v.1.15,2013-02-14 00:31:00,
2013-02-13 18:36:00,33.2,27.7,29.77,SW,229,4.0,5.0,80,0.00,,,0.00,0,Wunderground v.1.15,2013-02-14 00:36:00,
2013-02-13 18:45:00,32.9,27.7,29.77,SW,229,4.0,4.0,81,0.00,,,0.00,0,Wunderground v.1.15,2013-02-14 00:45:00,
2013-02-13 18:51:00,32.9,27.7,29.77,SW,229,3.0,3.0,81,0.00,,,0.00,0,Wunderground v.1.15,2013-02-14 00:51:00,
2013-02-13 18:59:00,32.7,27.5,29.77,SW,229,3.0,3.0,81,0.00,,,0.00,0,Wunderground v.1.15,2013-02-14 00:59:00,
2013-02-13 19:05:00,32.5,27.6,29.78,WSW,244,3.0,4.0,82,0.00,,,0.00,0,Wunderground v.1.15,2013-02-14 01:05:00,
2013-02-13 19:10:00,32.1,27.5,29.78,WSW,244,3.0,3.0,83,0.00,,,0.00,0,Wunderground v.1.15,2013-02-14 01:10:00,
2013-02-13 19:15:00,32.1,27.2,29.78,WSW,244,2.0,3.0,82,0.00,,,0.00,0,Wunderground v.1.15,2013-02-14 01:15:00,
2013-02-13 19:21:00,32.3,27.4,29.78,WSW,244,2.0,2.0,82,0.00,,,0.00,0,Wunderground v.1.15,2013-02-14 01:21:00,
2013-02-13 19:26:00,32.4,27.5,29.78,WSW,244,1.0,2.0,82,0.00,,,0.00,0,Wunderground v.1.15,2013-02-14 01:26:00,
2013-02-13 19:33:00,32.3,27.4,29.78,WSW,244,2.0,2.0,82,0.00,,,0.00,0,Wunderground v.1.15,2013-02-14 01:33:00,
2013-02-13 19:49:00,32.1,27.8,29.77,WSW,244,2.0,3.0,84,0.00,,,0.00,0,Wunderground v.1.15,2013-02-14 01:49:00,
2013-02-13 19:55:00,32.2,27.9,29.77,WSW,244,3.0,4.0,84,0.00,,,0.00,0,Wunderground v.1.15,2013-02-14 01:55:00,
2013-02-13 20:00:00,32.2,27.9,29.77,SW,230,4.0,5.0,84,0.00,,,0.00,0,Wunderground v.1.15,2013-02-14 02:00:00,
2013-02-13 20:06:00,32.5,28.2,29.77,SW,227,5.0,5.0,84,0.00,,,0.00,0,Wunderground v.1.15,2013-02-14 02:06:00,
2013-02-13 20:11:00,32.7,28.4,29.77,SW,222,5.0,5.0,84,0.00,,,0.00,0,Wunderground v.1.15,2013-02-14 02:11:00,
2013-02-13 20:18:00,32.8,28.2,29.77,SW,226,4.0,5.0,83,0.00,,,0.00,0,Wunderground v.1.15,2013-02-14 02:18:00,
2013-02-13 20:24:00,33.0,28.4,29.77,SW,226,3.0,4.0,83,0.00,,,0.00,0,Wunderground v.1.15,2013-02-14 02:24:00,
2013-02-13 20:30:00,33.0,28.4,29.77,SW,226,3.0,3.0,83,0.00,,,0.00,0,Wunderground v.1.15,2013-02-14 02:30:00,
2013-02-13 20:35:00,32.8,28.5,29.77,SW,226,2.0,3.0,84,0.00,,,0.00,0,Wunderground v.1.15,2013-02-14 02:35:00,
2013-02-13 20:40:00,32.7,28.4,29.77,SW,226,2.0,2.0,84,0.00,,,0.00,0,Wunderground v.1.15,2013-02-14 02:40:00,
2013-02-13 20:46:00,32.7,28.4,29.77,SW,226,1.0,2.0,84,0.00,,,0.00,0,Wunderground v.1.15,2013-02-14 02:46:00,
2013-02-13 20:53:00,32.6,28.3,29.77,SW,226,1.0,2.0,84,0.00,,,0.00,0,Wunderground v.1.15,2013-02-14 02:53:00,
2013-02-13 20:58:00,32.7,28.1,29.77,SW,226,1.0,2.0,83,0.00,,,0.00,0,Wunderground v.1.15,2013-02-14 02:58:00,
2013-02-13 21:03:00,32.9,28.3,29.77,SW,226,2.0,3.0,83,0.00,,,0.00,0,Wunderground v.1.15,2013-02-14 03:03:00,
2013-02-13 21:09:00,32.9,28.3,29.77,SW,226,2.0,3.0,83,0.00,,,0.00,0,Wunderground v.1.15,2013-02-14 03:09:00,
2013-02-13 21:15:00,32.7,28.1,29.76,SW,226,1.0,2.0,83,0.00,,,0.00,0,Wunderground v.1.15,2013-02-14 03:15:00,
2013-02-13 21:21:00,32.7,28.4,29.76,SW,226,1.0,2.0,84,0.00,,,0.00,0,Wunderground v.1.15,2013-02-14 03:21:00,
2013-02-13 21:26:00,33.0,28.7,29.76,SW,226,2.0,3.0,84,0.00,,,0.00,0,Wunderground v.1.15,2013-02-14 03:26:00,
2013-02-13 21:33:00,32.9,28.6,29.76,SW,226,2.0,2.0,84,0.00,,,0.00,0,Wunderground v.1.15,2013-02-14 03:33:00,
2013-02-13 21:38:00,32.9,28.6,29.76,SW,226,1.0,2.0,84,0.00,,,0.00,0,Wunderground v.1.15,2013-02-14 03:38:00,
2013-02-13 21:44:00,33.0,28.7,29.76,SW,226,2.0,2.0,84,0.00,,,0.00,0,Wunderground v.1.15,2013-02-14 03:44:00,
2013-02-13 21:50:00,33.2,28.9,29.76,SW,226,1.0,2.0,84,0.00,,,0.00,0,Wunderground v.1.15,2013-02-14 03:50:00,
2013-02-13 21:56:00,33.4,29.1,29.76,SW,226,1.0,3.0,84,0.00,,,0.00,0,Wunderground v.1.15,2013-02-14 03:56:00,
2013-02-13 22:01:00,33.5,29.2,29.76,SW,226,2.0,3.0,84,0.00,,,0.00,0,Wunderground v.1.15,2013-02-14 04:01:00,
2013-02-13 22:06:00,33.7,29.1,29.76,SW,226,2.0,3.0,83,0.00,,,0.00,0,Wunderground v.1.15,2013-02-14 04:06:00,
2013-02-13 22:13:00,33.7,29.4,29.76,SW,226,2.0,3.0,84,0.00,,,0.00,0,Wunderground v.1.15,2013-02-14 04:13:00,
2013-02-13 22:18:00,33.6,29.0,29.76,SW,226,1.0,3.0,83,0.00,,,0.00,0,Wunderground v.1.15,2013-02-14 04:18:00,
2013-02-13 22:24:00,33.8,29.2,29.76,SW,226,1.0,2.0,83,0.00,,,0.00,0,Wunderground v.1.15,2013-02-14 04:24:00,
2013-02-13 22:29:00,33.8,29.2,29.76,SW,226,1.0,2.0,83,0.00,,,0.00,0,Wunderground v.1.15,2013-02-14 04:29:00,
2013-02-13 22:35:00,33.7,29.1,29.75,SW,226,2.0,3.0,83,0.00,,,0.00,0,Wunderground v.1.15,2013-02-14 04:35:00,
2013-02-13 22:40:00,33.7,29.1,29.75,SW,226,1.0,1.0,83,0.00,,,0.00,0,Wunderground v.1.15,2013-02-14 04:40:00,
2013-02-13 22:46:00,33.5,29.2,29.75,SW,226,0.0,1.0,84,0.00,,,0.00,0,Wunderground v.1.15,2013-02-14 04:46:00,
2013-02-13 22:51:00,33.4,29.1,29.75,SW,226,0.0,0.0,84,0.00,,,0.00,0,Wunderground v.1.15,2013-02-14 04:51:00,
2013-02-13 22:58:00,33.3,29.0,29.75,SW,226,0.0,0.0,84,0.00,,,0.00,0,Wunderground v.1.15,2013-02-14 04:58:00,
2013-02-13 23:00:00,33.3,29.0,29.75,SW,226,0.0,0.0,84,0.00,,,0.00,0,Wunderground v.1.15,2013-02-14 05:00:00,
2013-02-13 23:01:00,33.3,29.0,29.75,SW,226,0.0,0.0,84,0.00,,,0.00,0,Wunderground v.1.15,2013-02-14 05:01:00,
2013-02-13 23:06:00,33.3,29.0,29.75,SW,226,0.0,0.0,84,0.00,,,0.00,0,Wunderground v.1.15,2013-02-14 05:06:00,
2013-02-13 23:08:00,33.2,28.9,29.75,SW,226,0.0,0.0,84,0.00,,,0.00,0,Wunderground v.1.15,2013-02-14 05:08:00,
2013-02-13 23:13:00,33.1,29.1,29.75,SW,226,0.0,0.0,85,0.00,,,0.00,0,Wunderground v.1.15,2013-02-14 05:13:00,
2013-02-13 23:18:00,33.1,29.1,29.74,SW,226,0.0,0.0,85,0.00,,,0.00,0,Wunderground v.1.15,2013-02-14 05:18:00,
2013-02-13 23:24:00,33.2,29.5,29.74,SW,226,0.0,0.0,86,0.00,,,0.00,0,Wunderground v.1.15,2013-02-14 05:24:00,
2013-02-13 23:29:00,33.2,29.2,29.74,SW,226,0.0,0.0,85,0.00,,,0.00,0,Wunderground v.1.15,2013-02-14 05:29:00,
2013-02-13 23:35:00,33.3,29.3,29.74,SW,226,0.0,0.0,85,0.00,,,0.00,0,Wunderground v.1.15,2013-02-14 05:35:00,
2013-02-13 23:40:00,33.1,29.4,29.74,SW,226,0.0,0.0,86,0.00,,,0.00,0,Wunderground v.1.15,2013-02-14 05:40:00,
2013-02-13 23:45:00,33.1,29.4,29.74,SW,226,0.0,0.0,86,0.00,,,0.00,0,Wunderground v.1.15,2013-02-14 05:45:00,
2013-02-13 23:51:00,33.3,29.6,29.74,SW,226,0.0,0.0,86,0.00,,,0.00,0,Wunderground v.1.15,2013-02-14 05:51:00,
2013-02-13 23:58:00,33.4,29.7,29.74,SW,226,0.0,0.0,86,0.00,,,0.00,0,Wunderground v.1.15,2013-02-14 05:58:00,